Flight Number: EUR1352 Duration: 1:30
Departure: Venice Marco Polo (LIPZ) at 18:30 Distance: 440 Nm
Arrival: Palermo Airport (LICJ) at 20:00 Equipment: B737

Weather Information
Venezia / Tessera, Italy (LIPZ) 45-30N 012-20E 6M Aug 19, 2018 - 04:50 AM EDT / 2018.08.19 0850 UTC
Wind: from the NE (040 degrees) at 13 MPH (11 KT):0
Visibility: greater than 7 mile(s):0 Temperature: 86 F (30 C) Dew Point: 62 F (17 C) Relative Humidity: 45% Pressure (altimeter): 30.06 in. Hg (1018 hPa)
ob: LIPZ 190850Z 04011KT CAVOK 30/17 Q1018 NOSIG cycle: 9
Sunrise: 04:20 Sunset: 18:08 (UTC)

Palermo / Punta Raisi, Italy (LICJ) 38-11N 013-06E 21M Aug 19, 2018 - 04:50 AM EDT / 2018.08.19 0850 UTC
Wind: from the WNW (300 degrees) at 5 MPH (4 KT):0
Visibility: greater than 7 mile(s):0
Sky conditions: mostly clear Temperature: 78 F (26 C) Dew Point: 68 F (20 C) Relative Humidity: 69% Pressure (altimeter): 30.00 in. Hg (1016 hPa)
ob: LICJ 190850Z 30004KT 9999 FEW030 26/20 Q1016 cycle: 9
Sunrise: 04:29 Sunset: 17:52 (UTC)

TAF:2018/08/19 06:21 TAF LICJ 190500Z 1906/2006 VRB05KT 9999 SCT030 TEMPO 1906/1916 TSRA BECMG 1907/1909 02014KT BECMG 1918/1920 VRB05KT

Previous Pireps for this route
Date Aircraft Flight time Fuel used Landing rate On time
2013-04-01B73701.357762-275Yes
2013-04-04B7371.4110800-319No
2013-04-08B7371.359500-257No
2013-07-12B7371.40120000Yes
2014-05-15B7371.55115000No
2015-01-26B7371.2281120No
2015-10-13B73701.319100-399Yes
2016-03-17B73701.429608-160No
2016-08-31B73701.1813466-94Yes
(pireps marked green are flown by you)

Route map